sensor_id;sensor_type;location;lat;lon;timestamp;P1;durP1;ratioP1;P2;durP2;ratioP2
828;SDS011;396;52.558;13.188;2022-12-07T00:00:32;14.80;;;5.57;;
828;SDS011;396;52.558;13.188;2022-12-07T00:03:00;15.80;;;4.93;;
828;SDS011;396;52.558;13.188;2022-12-07T00:05:27;15.20;;;5.00;;
828;SDS011;396;52.558;13.188;2022-12-07T00:07:55;17.67;;;6.30;;
828;SDS011;396;52.558;13.188;2022-12-07T00:10:22;13.47;;;6.07;;
828;SDS011;396;52.558;13.188;2022-12-07T00:12:49;16.17;;;5.27;;
828;SDS011;396;52.558;13.188;2022-12-07T00:15:16;12.87;;;5.33;;
828;SDS011;396;52.558;13.188;2022-12-07T00:17:42;14.77;;;5.73;;
828;SDS011;396;52.558;13.188;2022-12-07T00:20:10;14.53;;;5.70;;
828;SDS011;396;52.558;13.188;2022-12-07T00:22:37;13.53;;;5.10;;
828;SDS011;396;52.558;13.188;2022-12-07T00:25:04;16.77;;;5.67;;
828;SDS011;396;52.558;13.188;2022-12-07T00:27:31;11.83;;;5.23;;
828;SDS011;396;52.558;13.188;2022-12-07T00:29:57;12.47;;;4.80;;
828;SDS011;396;52.558;13.188;2022-12-07T00:32:24;14.07;;;5.10;;
828;SDS011;396;52.558;13.188;2022-12-07T00:34:50;15.00;;;5.73;;
828;SDS011;396;52.558;13.188;2022-12-07T00:37:18;13.63;;;5.07;;
828;SDS011;396;52.558;13.188;2022-12-07T00:39:45;14.10;;;5.27;;
828;SDS011;396;52.558;13.188;2022-12-07T00:42:12;11.93;;;4.53;;
828;SDS011;396;52.558;13.188;2022-12-07T00:44:38;11.43;;;5.03;;
828;SDS011;396;52.558;13.188;2022-12-07T00:47:05;13.83;;;4.77;;
828;SDS011;396;52.558;13.188;2022-12-07T00:49:31;13.57;;;5.17;;
828;SDS011;396;52.558;13.188;2022-12-07T00:51:58;12.17;;;5.37;;
828;SDS011;396;52.558;13.188;2022-12-07T00:54:26;10.10;;;4.10;;
828;SDS011;396;52.558;13.188;2022-12-07T00:56:52;16.63;;;5.03;;
828;SDS011;396;52.558;13.188;2022-12-07T00:59:19;15.87;;;5.47;;
828;SDS011;396;52.558;13.188;2022-12-07T01:01:45;9.90;;;4.13;;
828;SDS011;396;52.558;13.188;2022-12-07T01:04:12;14.47;;;6.30;;
828;SDS011;396;52.558;13.188;2022-12-07T01:06:38;14.80;;;5.50;;
828;SDS011;396;52.558;13.188;2022-12-07T01:09:05;13.63;;;5.00;;
828;SDS011;396;52.558;13.188;2022-12-07T01:11:33;12.57;;;5.43;;
828;SDS011;396;52.558;13.188;2022-12-07T01:14:00;14.37;;;5.30;;
828;SDS011;396;52.558;13.188;2022-12-07T01:16:28;12.90;;;4.67;;
828;SDS011;396;52.558;13.188;2022-12-07T01:18:57;13.20;;;4.33;;
828;SDS011;396;52.558;13.188;2022-12-07T01:21:25;8.80;;;3.27;;
828;SDS011;396;52.558;13.188;2022-12-07T01:23:53;8.97;;;3.57;;
828;SDS011;396;52.558;13.188;2022-12-07T01:26:21;11.70;;;4.07;;
828;SDS011;396;52.558;13.188;2022-12-07T01:28:50;11.23;;;4.00;;
828;SDS011;396;52.558;13.188;2022-12-07T01:31:20;10.67;;;3.90;;
828;SDS011;396;52.558;13.188;2022-12-07T01:33:50;10.37;;;3.40;;
828;SDS011;396;52.558;13.188;2022-12-07T01:36:19;11.90;;;3.37;;
828;SDS011;396;52.558;13.188;2022-12-07T01:38:47;11.07;;;4.13;;
828;SDS011;396;52.558;13.188;2022-12-07T01:41:16;10.90;;;3.90;;
828;SDS011;396;52.558;13.188;2022-12-07T01:46:51;10.20;;;3.70;;
828;SDS011;396;52.558;13.188;2022-12-07T01:49:21;8.70;;;3.90;;
828;SDS011;396;52.558;13.188;2022-12-07T01:51:53;13.73;;;4.80;;
828;SDS011;396;52.558;13.188;2022-12-07T01:54:24;11.63;;;4.60;;
828;SDS011;396;52.558;13.188;2022-12-07T01:56:52;7.53;;;2.90;;
828;SDS011;396;52.558;13.188;2022-12-07T01:59:21;7.97;;;3.47;;
828;SDS011;396;52.558;13.188;2022-12-07T02:01:52;7.50;;;3.30;;
828;SDS011;396;52.558;13.188;2022-12-07T02:04:21;7.13;;;2.70;;
828;SDS011;396;52.558;13.188;2022-12-07T02:06:48;7.47;;;3.50;;
828;SDS011;396;52.558;13.188;2022-12-07T02:09:15;14.17;;;3.70;;
828;SDS011;396;52.558;13.188;2022-12-07T02:11:42;8.67;;;3.90;;
828;SDS011;396;52.558;13.188;2022-12-07T02:14:09;9.57;;;4.00;;
828;SDS011;396;52.558;13.188;2022-12-07T02:16:38;9.40;;;2.97;;
828;SDS011;396;52.558;13.188;2022-12-07T02:19:21;15.60;;;4.90;;
828;SDS011;396;52.558;13.188;2022-12-07T02:22:16;7.97;;;3.50;;
828;SDS011;396;52.558;13.188;2022-12-07T02:24:58;8.07;;;3.33;;
828;SDS011;396;52.558;13.188;2022-12-07T02:27:38;8.77;;;3.60;;
828;SDS011;396;52.558;13.188;2022-12-07T02:30:13;7.80;;;3.20;;
828;SDS011;396;52.558;13.188;2022-12-07T02:32:43;14.73;;;4.77;;
828;SDS011;396;52.558;13.188;2022-12-07T02:35:17;10.47;;;4.40;;
828;SDS011;396;52.558;13.188;2022-12-07T02:37:48;9.50;;;3.00;;
828;SDS011;396;52.558;13.188;2022-12-07T02:40:21;11.80;;;3.63;;
828;SDS011;396;52.558;13.188;2022-12-07T02:42:53;10.10;;;4.53;;
828;SDS011;396;52.558;13.188;2022-12-07T02:45:26;11.10;;;3.57;;
828;SDS011;396;52.558;13.188;2022-12-07T02:47:56;11.23;;;4.10;;
828;SDS011;396;52.558;13.188;2022-12-07T02:50:25;9.60;;;4.03;;
828;SDS011;396;52.558;13.188;2022-12-07T02:52:53;9.97;;;3.50;;
828;SDS011;396;52.558;13.188;2022-12-07T02:55:19;10.17;;;3.87;;
828;SDS011;396;52.558;13.188;2022-12-07T02:57:54;9.77;;;3.90;;
828;SDS011;396;52.558;13.188;2022-12-07T03:00:34;9.43;;;3.73;;
828;SDS011;396;52.558;13.188;2022-12-07T03:03:11;13.00;;;5.40;;
828;SDS011;396;52.558;13.188;2022-12-07T03:05:52;11.50;;;3.77;;
828;SDS011;396;52.558;13.188;2022-12-07T03:08:28;11.50;;;4.90;;
828;SDS011;396;52.558;13.188;2022-12-07T03:11:02;12.40;;;5.07;;
828;SDS011;396;52.558;13.188;2022-12-07T03:13:33;12.00;;;4.13;;
828;SDS011;396;52.558;13.188;2022-12-07T03:16:07;13.03;;;4.50;;
828;SDS011;396;52.558;13.188;2022-12-07T03:18:39;12.67;;;5.00;;
828;SDS011;396;52.558;13.188;2022-12-07T03:21:10;11.13;;;4.13;;
828;SDS011;396;52.558;13.188;2022-12-07T03:23:40;14.10;;;5.20;;
828;SDS011;396;52.558;13.188;2022-12-07T03:26:10;12.10;;;4.20;;
828;SDS011;396;52.558;13.188;2022-12-07T03:28:41;16.03;;;6.93;;
828;SDS011;396;52.558;13.188;2022-12-07T03:31:13;13.10;;;5.87;;
828;SDS011;396;52.558;13.188;2022-12-07T03:33:44;12.67;;;4.73;;
828;SDS011;396;52.558;13.188;2022-12-07T03:36:17;15.80;;;6.07;;
828;SDS011;396;52.558;13.188;2022-12-07T03:38:49;14.23;;;5.87;;
828;SDS011;396;52.558;13.188;2022-12-07T03:41:20;10.63;;;4.80;;
828;SDS011;396;52.558;13.188;2022-12-07T03:43:49;15.90;;;5.83;;
828;SDS011;396;52.558;13.188;2022-12-07T03:46:19;16.50;;;5.13;;
828;SDS011;396;52.558;13.188;2022-12-07T03:48:52;16.90;;;7.17;;
828;SDS011;396;52.558;13.188;2022-12-07T03:51:25;18.63;;;7.50;;
828;SDS011;396;52.558;13.188;2022-12-07T03:53:57;18.90;;;6.87;;
828;SDS011;396;52.558;13.188;2022-12-07T03:56:27;23.50;;;7.23;;
828;SDS011;396;52.558;13.188;2022-12-07T03:58:55;19.57;;;6.63;;
828;SDS011;396;52.558;13.188;2022-12-07T04:01:23;14.10;;;6.50;;
828;SDS011;396;52.558;13.188;2022-12-07T04:03:50;13.47;;;6.03;;
828;SDS011;396;52.558;13.188;2022-12-07T04:06:17;15.67;;;6.00;;
828;SDS011;396;52.558;13.188;2022-12-07T04:08:43;20.33;;;7.00;;
828;SDS011;396;52.558;13.188;2022-12-07T04:11:10;14.60;;;6.27;;
828;SDS011;396;52.558;13.188;2022-12-07T04:13:37;13.93;;;6.10;;
828;SDS011;396;52.558;13.188;2022-12-07T04:16:17;13.80;;;6.43;;
828;SDS011;396;52.558;13.188;2022-12-07T04:18:45;17.17;;;6.23;;
828;SDS011;396;52.558;13.188;2022-12-07T04:21:12;13.10;;;6.00;;
828;SDS011;396;52.558;13.188;2022-12-07T04:23:38;18.87;;;6.80;;
828;SDS011;396;52.558;13.188;2022-12-07T04:26:05;15.33;;;6.37;;
828;SDS011;396;52.558;13.188;2022-12-07T04:28:31;18.00;;;7.60;;
828;SDS011;396;52.558;13.188;2022-12-07T04:30:58;13.13;;;6.10;;
828;SDS011;396;52.558;13.188;2022-12-07T04:33:25;22.43;;;7.97;;
828;SDS011;396;52.558;13.188;2022-12-07T04:35:52;23.70;;;6.37;;
828;SDS011;396;52.558;13.188;2022-12-07T04:38:19;15.20;;;7.13;;
828;SDS011;396;52.558;13.188;2022-12-07T04:40:46;17.90;;;6.30;;
828;SDS011;396;52.558;13.188;2022-12-07T04:43:12;17.93;;;7.70;;
828;SDS011;396;52.558;13.188;2022-12-07T04:45:39;22.53;;;7.60;;
828;SDS011;396;52.558;13.188;2022-12-07T04:48:05;22.30;;;8.83;;
828;SDS011;396;52.558;13.188;2022-12-07T04:50:32;22.90;;;8.20;;
828;SDS011;396;52.558;13.188;2022-12-07T04:53:00;17.97;;;8.23;;
828;SDS011;396;52.558;13.188;2022-12-07T04:55:26;18.90;;;8.30;;
828;SDS011;396;52.558;13.188;2022-12-07T04:57:53;15.10;;;7.10;;
828;SDS011;396;52.558;13.188;2022-12-07T05:00:19;21.20;;;9.40;;
828;SDS011;396;52.558;13.188;2022-12-07T05:02:46;20.40;;;8.70;;
828;SDS011;396;52.558;13.188;2022-12-07T05:05:13;20.80;;;9.03;;
828;SDS011;396;52.558;13.188;2022-12-07T05:07:39;25.20;;;10.33;;
828;SDS011;396;52.558;13.188;2022-12-07T05:10:08;22.20;;;9.10;;
828;SDS011;396;52.558;13.188;2022-12-07T05:12:35;21.20;;;8.50;;
828;SDS011;396;52.558;13.188;2022-12-07T05:15:02;20.53;;;9.37;;
828;SDS011;396;52.558;13.188;2022-12-07T05:17:29;27.43;;;11.27;;
828;SDS011;396;52.558;13.188;2022-12-07T05:19:55;29.10;;;9.83;;
828;SDS011;396;52.558;13.188;2022-12-07T05:22:22;23.53;;;9.67;;
828;SDS011;396;52.558;13.188;2022-12-07T05:24:50;25.67;;;8.90;;
828;SDS011;396;52.558;13.188;2022-12-07T05:27:18;20.87;;;9.50;;
828;SDS011;396;52.558;13.188;2022-12-07T05:29:45;18.03;;;8.33;;
828;SDS011;396;52.558;13.188;2022-12-07T05:32:11;23.07;;;9.50;;
828;SDS011;396;52.558;13.188;2022-12-07T05:34:38;21.13;;;9.73;;
828;SDS011;396;52.558;13.188;2022-12-07T05:37:05;21.30;;;9.00;;
828;SDS011;396;52.558;13.188;2022-12-07T05:39:31;26.17;;;10.50;;
828;SDS011;396;52.558;13.188;2022-12-07T05:41:58;23.13;;;8.60;;
828;SDS011;396;52.558;13.188;2022-12-07T05:44:41;17.00;;;7.67;;
828;SDS011;396;52.558;13.188;2022-12-07T05:47:09;20.60;;;8.20;;
828;SDS011;396;52.558;13.188;2022-12-07T05:49:36;25.50;;;9.73;;
828;SDS011;396;52.558;13.188;2022-12-07T05:52:03;23.90;;;9.83;;
828;SDS011;396;52.558;13.188;2022-12-07T05:54:29;24.50;;;10.00;;
828;SDS011;396;52.558;13.188;2022-12-07T05:56:56;25.63;;;10.20;;
828;SDS011;396;52.558;13.188;2022-12-07T05:59:23;28.37;;;9.47;;
828;SDS011;396;52.558;13.188;2022-12-07T06:01:50;24.07;;;9.13;;
828;SDS011;396;52.558;13.188;2022-12-07T06:04:17;23.97;;;10.00;;
828;SDS011;396;52.558;13.188;2022-12-07T06:06:44;31.30;;;9.73;;
828;SDS011;396;52.558;13.188;2022-12-07T06:09:11;26.60;;;10.23;;
828;SDS011;396;52.558;13.188;2022-12-07T06:11:38;20.50;;;9.07;;
828;SDS011;396;52.558;13.188;2022-12-07T06:14:22;24.33;;;10.90;;
828;SDS011;396;52.558;13.188;2022-12-07T06:16:50;32.93;;;10.83;;
828;SDS011;396;52.558;13.188;2022-12-07T06:19:17;21.00;;;9.40;;
828;SDS011;396;52.558;13.188;2022-12-07T06:21:44;21.57;;;8.90;;
828;SDS011;396;52.558;13.188;2022-12-07T06:24:11;21.63;;;9.53;;
828;SDS011;396;52.558;13.188;2022-12-07T06:26:38;29.20;;;11.33;;
828;SDS011;396;52.558;13.188;2022-12-07T06:29:04;28.70;;;9.43;;
828;SDS011;396;52.558;13.188;2022-12-07T06:31:31;28.23;;;10.47;;
828;SDS011;396;52.558;13.188;2022-12-07T06:33:59;23.33;;;10.40;;
828;SDS011;396;52.558;13.188;2022-12-07T06:36:26;27.07;;;11.40;;
828;SDS011;396;52.558;13.188;2022-12-07T06:38:53;26.93;;;8.50;;
828;SDS011;396;52.558;13.188;2022-12-07T06:41:20;20.27;;;9.03;;
828;SDS011;396;52.558;13.188;2022-12-07T06:43:47;23.77;;;9.03;;
828;SDS011;396;52.558;13.188;2022-12-07T06:46:13;26.87;;;10.13;;
828;SDS011;396;52.558;13.188;2022-12-07T06:48:40;20.80;;;8.67;;
828;SDS011;396;52.558;13.188;2022-12-07T06:51:08;31.50;;;10.23;;
828;SDS011;396;52.558;13.188;2022-12-07T06:53:36;31.23;;;10.50;;
828;SDS011;396;52.558;13.188;2022-12-07T06:56:03;20.80;;;8.37;;
828;SDS011;396;52.558;13.188;2022-12-07T06:58:30;26.53;;;10.03;;
828;SDS011;396;52.558;13.188;2022-12-07T07:00:57;20.73;;;8.50;;
828;SDS011;396;52.558;13.188;2022-12-07T07:03:24;28.30;;;10.47;;
828;SDS011;396;52.558;13.188;2022-12-07T07:05:50;22.10;;;8.00;;
828;SDS011;396;52.558;13.188;2022-12-07T07:08:18;19.03;;;8.80;;
828;SDS011;396;52.558;13.188;2022-12-07T07:10:45;21.70;;;8.50;;
828;SDS011;396;52.558;13.188;2022-12-07T07:13:11;27.47;;;8.80;;
828;SDS011;396;52.558;13.188;2022-12-07T07:15:38;21.53;;;9.20;;
828;SDS011;396;52.558;13.188;2022-12-07T07:18:05;21.17;;;7.53;;
828;SDS011;396;52.558;13.188;2022-12-07T07:20:31;17.23;;;7.63;;
828;SDS011;396;52.558;13.188;2022-12-07T07:22:58;28.57;;;10.07;;
828;SDS011;396;52.558;13.188;2022-12-07T07:25:26;35.93;;;10.03;;
828;SDS011;396;52.558;13.188;2022-12-07T07:27:52;21.80;;;10.27;;
828;SDS011;396;52.558;13.188;2022-12-07T07:30:19;21.20;;;7.87;;
828;SDS011;396;52.558;13.188;2022-12-07T07:32:46;20.60;;;9.27;;
828;SDS011;396;52.558;13.188;2022-12-07T07:35:12;20.23;;;7.10;;
828;SDS011;396;52.558;13.188;2022-12-07T07:37:39;19.00;;;8.47;;
828;SDS011;396;52.558;13.188;2022-12-07T07:40:06;17.87;;;7.53;;
828;SDS011;396;52.558;13.188;2022-12-07T07:42:35;20.67;;;7.30;;
828;SDS011;396;52.558;13.188;2022-12-07T07:45:01;14.83;;;5.33;;
828;SDS011;396;52.558;13.188;2022-12-07T07:47:29;16.90;;;5.57;;
828;SDS011;396;52.558;13.188;2022-12-07T07:49:55;15.03;;;6.43;;
828;SDS011;396;52.558;13.188;2022-12-07T07:52:22;15.07;;;6.50;;
828;SDS011;396;52.558;13.188;2022-12-07T07:54:49;13.23;;;6.03;;
828;SDS011;396;52.558;13.188;2022-12-07T07:57:15;11.60;;;5.43;;
828;SDS011;396;52.558;13.188;2022-12-07T07:59:44;15.03;;;6.40;;
828;SDS011;396;52.558;13.188;2022-12-07T08:02:11;11.10;;;4.73;;
828;SDS011;396;52.558;13.188;2022-12-07T08:04:41;17.83;;;4.90;;
828;SDS011;396;52.558;13.188;2022-12-07T08:07:08;10.83;;;4.80;;
828;SDS011;396;52.558;13.188;2022-12-07T08:09:34;9.70;;;4.33;;
828;SDS011;396;52.558;13.188;2022-12-07T08:12:01;12.43;;;4.80;;
828;SDS011;396;52.558;13.188;2022-12-07T08:14:28;9.83;;;3.53;;
828;SDS011;396;52.558;13.188;2022-12-07T08:16:56;10.60;;;4.40;;
828;SDS011;396;52.558;13.188;2022-12-07T08:19:23;9.30;;;3.70;;
828;SDS011;396;52.558;13.188;2022-12-07T08:21:49;8.43;;;3.70;;
828;SDS011;396;52.558;13.188;2022-12-07T08:24:16;12.43;;;4.00;;
828;SDS011;396;52.558;13.188;2022-12-07T08:26:43;10.37;;;3.53;;
828;SDS011;396;52.558;13.188;2022-12-07T08:29:09;11.67;;;4.10;;
828;SDS011;396;52.558;13.188;2022-12-07T08:31:36;13.00;;;3.33;;
828;SDS011;396;52.558;13.188;2022-12-07T08:34:04;9.67;;;2.50;;
828;SDS011;396;52.558;13.188;2022-12-07T08:36:30;9.07;;;3.57;;
828;SDS011;396;52.558;13.188;2022-12-07T08:38:57;7.57;;;3.00;;
828;SDS011;396;52.558;13.188;2022-12-07T08:41:23;7.17;;;3.00;;
828;SDS011;396;52.558;13.188;2022-12-07T08:43:50;7.60;;;2.63;;
828;SDS011;396;52.558;13.188;2022-12-07T08:46:18;7.83;;;3.10;;
828;SDS011;396;52.558;13.188;2022-12-07T08:48:48;7.70;;;3.00;;
828;SDS011;396;52.558;13.188;2022-12-07T08:51:19;6.13;;;2.43;;
828;SDS011;396;52.558;13.188;2022-12-07T08:53:47;6.20;;;2.17;;
828;SDS011;396;52.558;13.188;2022-12-07T08:56:15;7.23;;;2.70;;
828;SDS011;396;52.558;13.188;2022-12-07T08:58:42;7.47;;;2.30;;
828;SDS011;396;52.558;13.188;2022-12-07T09:01:09;14.20;;;2.43;;
828;SDS011;396;52.558;13.188;2022-12-07T09:03:36;7.53;;;2.07;;
828;SDS011;396;52.558;13.188;2022-12-07T09:06:02;5.27;;;1.47;;
828;SDS011;396;52.558;13.188;2022-12-07T09:08:32;6.27;;;1.90;;
828;SDS011;396;52.558;13.188;2022-12-07T09:11:02;7.43;;;2.40;;
828;SDS011;396;52.558;13.188;2022-12-07T09:13:29;7.33;;;2.60;;
828;SDS011;396;52.558;13.188;2022-12-07T09:15:55;6.57;;;2.40;;
828;SDS011;396;52.558;13.188;2022-12-07T09:18:22;7.63;;;2.63;;
828;SDS011;396;52.558;13.188;2022-12-07T09:20:49;5.77;;;2.20;;
828;SDS011;396;52.558;13.188;2022-12-07T09:23:15;6.67;;;1.90;;
828;SDS011;396;52.558;13.188;2022-12-07T09:25:43;7.20;;;2.47;;
828;SDS011;396;52.558;13.188;2022-12-07T09:28:10;7.37;;;2.30;;
828;SDS011;396;52.558;13.188;2022-12-07T09:30:36;7.37;;;2.50;;
828;SDS011;396;52.558;13.188;2022-12-07T09:33:03;6.07;;;1.83;;
828;SDS011;396;52.558;13.188;2022-12-07T09:35:30;5.00;;;1.50;;
828;SDS011;396;52.558;13.188;2022-12-07T09:37:56;5.33;;;1.70;;
828;SDS011;396;52.558;13.188;2022-12-07T09:40:23;6.60;;;2.33;;
828;SDS011;396;52.558;13.188;2022-12-07T09:42:52;6.10;;;1.90;;
828;SDS011;396;52.558;13.188;2022-12-07T09:45:21;6.80;;;1.90;;
828;SDS011;396;52.558;13.188;2022-12-07T09:47:49;6.10;;;1.97;;
828;SDS011;396;52.558;13.188;2022-12-07T09:50:17;7.60;;;2.43;;
828;SDS011;396;52.558;13.188;2022-12-07T09:52:47;5.93;;;1.90;;
828;SDS011;396;52.558;13.188;2022-12-07T09:55:15;6.30;;;1.83;;
828;SDS011;396;52.558;13.188;2022-12-07T09:57:47;5.67;;;2.03;;
828;SDS011;396;52.558;13.188;2022-12-07T10:00:17;7.17;;;2.40;;
828;SDS011;396;52.558;13.188;2022-12-07T10:02:46;9.60;;;2.10;;
828;SDS011;396;52.558;13.188;2022-12-07T10:05:16;6.43;;;1.93;;
828;SDS011;396;52.558;13.188;2022-12-07T10:07:47;5.90;;;1.40;;
828;SDS011;396;52.558;13.188;2022-12-07T10:10:15;5.37;;;1.83;;
828;SDS011;396;52.558;13.188;2022-12-07T10:12:52;6.57;;;2.03;;
828;SDS011;396;52.558;13.188;2022-12-07T10:15:22;6.40;;;2.00;;
828;SDS011;396;52.558;13.188;2022-12-07T10:17:49;8.47;;;2.00;;
828;SDS011;396;52.558;13.188;2022-12-07T10:20:18;6.30;;;2.00;;
828;SDS011;396;52.558;13.188;2022-12-07T10:22:56;7.10;;;1.80;;
828;SDS011;396;52.558;13.188;2022-12-07T10:25:25;5.60;;;1.17;;
828;SDS011;396;52.558;13.188;2022-12-07T10:27:57;7.70;;;1.97;;
828;SDS011;396;52.558;13.188;2022-12-07T10:30:29;8.73;;;2.00;;
828;SDS011;396;52.558;13.188;2022-12-07T10:32:58;5.93;;;2.00;;
828;SDS011;396;52.558;13.188;2022-12-07T10:35:26;6.37;;;2.53;;
828;SDS011;396;52.558;13.188;2022-12-07T10:37:55;6.30;;;2.73;;
828;SDS011;396;52.558;13.188;2022-12-07T10:40:26;6.97;;;2.47;;
828;SDS011;396;52.558;13.188;2022-12-07T10:43:05;9.03;;;2.63;;
828;SDS011;396;52.558;13.188;2022-12-07T10:45:54;7.30;;;2.40;;
828;SDS011;396;52.558;13.188;2022-12-07T10:48:40;6.70;;;2.13;;
828;SDS011;396;52.558;13.188;2022-12-07T10:51:15;7.50;;;3.00;;
828;SDS011;396;52.558;13.188;2022-12-07T10:53:56;8.37;;;2.70;;
828;SDS011;396;52.558;13.188;2022-12-07T10:56:40;6.57;;;2.20;;
828;SDS011;396;52.558;13.188;2022-12-07T10:59:22;7.50;;;2.30;;
828;SDS011;396;52.558;13.188;2022-12-07T11:02:06;8.63;;;2.47;;
828;SDS011;396;52.558;13.188;2022-12-07T11:04:49;7.47;;;2.87;;
828;SDS011;396;52.558;13.188;2022-12-07T11:07:27;6.70;;;2.67;;
828;SDS011;396;52.558;13.188;2022-12-07T11:10:05;6.77;;;2.20;;
828;SDS011;396;52.558;13.188;2022-12-07T11:12:42;7.93;;;2.50;;
828;SDS011;396;52.558;13.188;2022-12-07T11:15:20;10.40;;;2.90;;
828;SDS011;396;52.558;13.188;2022-12-07T11:17:54;6.90;;;2.80;;
828;SDS011;396;52.558;13.188;2022-12-07T11:20:32;6.67;;;2.60;;
828;SDS011;396;52.558;13.188;2022-12-07T11:23:10;8.17;;;1.80;;
828;SDS011;396;52.558;13.188;2022-12-07T11:25:47;8.07;;;2.80;;
828;SDS011;396;52.558;13.188;2022-12-07T11:28:21;5.60;;;1.97;;
828;SDS011;396;52.558;13.188;2022-12-07T11:31:11;7.30;;;2.67;;
828;SDS011;396;52.558;13.188;2022-12-07T11:33:47;6.00;;;2.10;;
828;SDS011;396;52.558;13.188;2022-12-07T11:36:27;10.33;;;3.73;;
828;SDS011;396;52.558;13.188;2022-12-07T11:39:00;7.73;;;3.30;;
828;SDS011;396;52.558;13.188;2022-12-07T11:41:29;7.30;;;2.93;;
828;SDS011;396;52.558;13.188;2022-12-07T11:44:01;7.30;;;2.97;;
828;SDS011;396;52.558;13.188;2022-12-07T11:46:37;6.90;;;2.90;;
828;SDS011;396;52.558;13.188;2022-12-07T11:49:13;7.73;;;2.70;;
828;SDS011;396;52.558;13.188;2022-12-07T11:51:45;6.93;;;2.33;;
828;SDS011;396;52.558;13.188;2022-12-07T11:54:18;7.47;;;2.40;;
828;SDS011;396;52.558;13.188;2022-12-07T11:56:47;6.90;;;3.00;;
828;SDS011;396;52.558;13.188;2022-12-07T11:59:17;7.17;;;2.73;;
828;SDS011;396;52.558;13.188;2022-12-07T12:01:52;6.97;;;2.13;;
828;SDS011;396;52.558;13.188;2022-12-07T12:04:31;5.30;;;1.80;;
828;SDS011;396;52.558;13.188;2022-12-07T12:07:05;9.60;;;2.20;;
828;SDS011;396;52.558;13.188;2022-12-07T12:09:33;9.10;;;1.70;;
828;SDS011;396;52.558;13.188;2022-12-07T12:12:12;6.97;;;1.97;;
828;SDS011;396;52.558;13.188;2022-12-07T12:14:53;6.10;;;1.30;;
828;SDS011;396;52.558;13.188;2022-12-07T12:17:40;6.00;;;1.57;;
828;SDS011;396;52.558;13.188;2022-12-07T12:20:23;5.80;;;1.60;;
828;SDS011;396;52.558;13.188;2022-12-07T12:22:55;6.20;;;1.67;;
828;SDS011;396;52.558;13.188;2022-12-07T12:25:28;7.80;;;1.90;;
828;SDS011;396;52.558;13.188;2022-12-07T12:27:58;6.17;;;1.70;;
828;SDS011;396;52.558;13.188;2022-12-07T12:30:31;6.90;;;1.60;;
828;SDS011;396;52.558;13.188;2022-12-07T12:33:06;7.33;;;2.03;;
828;SDS011;396;52.558;13.188;2022-12-07T12:35:42;7.60;;;1.77;;
828;SDS011;396;52.558;13.188;2022-12-07T12:38:20;8.03;;;2.27;;
828;SDS011;396;52.558;13.188;2022-12-07T12:40:53;5.90;;;1.60;;
828;SDS011;396;52.558;13.188;2022-12-07T12:55:14;5.40;;;1.50;;
828;SDS011;396;52.558;13.188;2022-12-07T12:57:46;5.60;;;1.30;;
828;SDS011;396;52.558;13.188;2022-12-07T13:00:17;5.57;;;1.63;;
828;SDS011;396;52.558;13.188;2022-12-07T13:02:49;5.47;;;1.80;;
828;SDS011;396;52.558;13.188;2022-12-07T13:05:18;6.60;;;1.60;;
828;SDS011;396;52.558;13.188;2022-12-07T13:07:53;4.40;;;0.90;;
828;SDS011;396;52.558;13.188;2022-12-07T13:10:37;5.93;;;1.30;;
828;SDS011;396;52.558;13.188;2022-12-07T13:22:40;6.53;;;1.70;;
828;SDS011;396;52.558;13.188;2022-12-07T13:25:11;5.53;;;1.20;;
828;SDS011;396;52.558;13.188;2022-12-07T13:27:41;5.60;;;1.43;;
828;SDS011;396;52.558;13.188;2022-12-07T13:30:13;4.80;;;1.40;;
828;SDS011;396;52.558;13.188;2022-12-07T13:32:41;5.63;;;1.60;;
828;SDS011;396;52.558;13.188;2022-12-07T13:35:27;5.10;;;1.50;;
828;SDS011;396;52.558;13.188;2022-12-07T13:37:58;4.97;;;1.33;;
828;SDS011;396;52.558;13.188;2022-12-07T13:40:25;5.63;;;1.33;;
828;SDS011;396;52.558;13.188;2022-12-07T13:43:00;5.70;;;1.30;;
828;SDS011;396;52.558;13.188;2022-12-07T13:45:28;5.67;;;1.80;;
828;SDS011;396;52.558;13.188;2022-12-07T13:48:14;9.30;;;3.10;;
828;SDS011;396;52.558;13.188;2022-12-07T13:50:52;6.60;;;1.90;;
828;SDS011;396;52.558;13.188;2022-12-07T13:53:19;6.17;;;1.70;;
828;SDS011;396;52.558;13.188;2022-12-07T13:55:46;6.37;;;1.53;;
828;SDS011;396;52.558;13.188;2022-12-07T13:58:15;6.40;;;1.10;;
828;SDS011;396;52.558;13.188;2022-12-07T14:00:42;5.73;;;1.20;;
828;SDS011;396;52.558;13.188;2022-12-07T14:03:25;5.33;;;1.37;;
828;SDS011;396;52.558;13.188;2022-12-07T14:08:43;8.00;;;1.50;;
828;SDS011;396;52.558;13.188;2022-12-07T14:11:12;5.20;;;1.60;;
828;SDS011;396;52.558;13.188;2022-12-07T14:13:49;5.93;;;1.57;;
828;SDS011;396;52.558;13.188;2022-12-07T14:16:23;6.40;;;1.30;;
828;SDS011;396;52.558;13.188;2022-12-07T14:18:54;7.77;;;1.33;;
828;SDS011;396;52.558;13.188;2022-12-07T14:21:22;7.37;;;1.87;;
828;SDS011;396;52.558;13.188;2022-12-07T14:24:11;11.40;;;2.10;;
828;SDS011;396;52.558;13.188;2022-12-07T14:26:41;5.73;;;1.43;;
828;SDS011;396;52.558;13.188;2022-12-07T14:29:20;7.23;;;1.63;;
828;SDS011;396;52.558;13.188;2022-12-07T14:31:48;5.93;;;1.60;;
828;SDS011;396;52.558;13.188;2022-12-07T14:34:14;8.97;;;2.23;;
828;SDS011;396;52.558;13.188;2022-12-07T14:36:41;5.97;;;1.40;;
828;SDS011;396;52.558;13.188;2022-12-07T14:39:08;6.13;;;1.40;;
828;SDS011;396;52.558;13.188;2022-12-07T14:41:34;13.40;;;1.57;;
828;SDS011;396;52.558;13.188;2022-12-07T14:44:20;6.37;;;1.60;;
828;SDS011;396;52.558;13.188;2022-12-07T14:46:49;5.50;;;1.17;;
828;SDS011;396;52.558;13.188;2022-12-07T14:49:16;8.10;;;1.67;;
828;SDS011;396;52.558;13.188;2022-12-07T14:51:43;5.60;;;1.10;;
828;SDS011;396;52.558;13.188;2022-12-07T14:54:14;4.90;;;1.10;;
828;SDS011;396;52.558;13.188;2022-12-07T14:56:43;6.07;;;1.87;;
828;SDS011;396;52.558;13.188;2022-12-07T14:59:11;18.23;;;2.40;;
828;SDS011;396;52.558;13.188;2022-12-07T15:01:39;6.33;;;1.53;;
828;SDS011;396;52.558;13.188;2022-12-07T15:04:06;7.07;;;1.93;;
828;SDS011;396;52.558;13.188;2022-12-07T15:06:32;5.60;;;1.57;;
828;SDS011;396;52.558;13.188;2022-12-07T15:08:59;8.40;;;1.40;;
828;SDS011;396;52.558;13.188;2022-12-07T15:11:26;4.67;;;1.10;;
828;SDS011;396;52.558;13.188;2022-12-07T15:13:53;5.70;;;1.60;;
828;SDS011;396;52.558;13.188;2022-12-07T15:16:36;5.07;;;1.30;;
828;SDS011;396;52.558;13.188;2022-12-07T15:19:07;8.30;;;1.50;;
828;SDS011;396;52.558;13.188;2022-12-07T15:21:38;4.73;;;1.17;;
828;SDS011;396;52.558;13.188;2022-12-07T15:24:05;7.20;;;1.50;;
828;SDS011;396;52.558;13.188;2022-12-07T15:26:32;4.80;;;1.07;;
828;SDS011;396;52.558;13.188;2022-12-07T15:28:58;5.90;;;0.97;;
828;SDS011;396;52.558;13.188;2022-12-07T15:31:25;5.90;;;1.77;;
828;SDS011;396;52.558;13.188;2022-12-07T15:33:51;4.67;;;1.13;;
828;SDS011;396;52.558;13.188;2022-12-07T15:36:20;4.80;;;1.27;;
828;SDS011;396;52.558;13.188;2022-12-07T15:38:47;8.83;;;1.47;;
828;SDS011;396;52.558;13.188;2022-12-07T15:41:14;6.13;;;1.53;;
828;SDS011;396;52.558;13.188;2022-12-07T15:43:41;5.53;;;1.53;;
828;SDS011;396;52.558;13.188;2022-12-07T15:46:28;4.67;;;1.27;;
828;SDS011;396;52.558;13.188;2022-12-07T15:48:56;6.87;;;1.40;;
828;SDS011;396;52.558;13.188;2022-12-07T15:51:24;5.47;;;1.50;;
828;SDS011;396;52.558;13.188;2022-12-07T15:53:50;10.80;;;1.47;;
828;SDS011;396;52.558;13.188;2022-12-07T15:56:17;7.33;;;1.50;;
828;SDS011;396;52.558;13.188;2022-12-07T15:58:43;6.40;;;1.47;;
828;SDS011;396;52.558;13.188;2022-12-07T16:01:10;4.63;;;1.20;;
828;SDS011;396;52.558;13.188;2022-12-07T16:03:37;8.33;;;1.50;;
828;SDS011;396;52.558;13.188;2022-12-07T16:06:04;5.20;;;1.33;;